sensor_id;sensor_type;location;lat;lon;timestamp;P1;durP1;ratioP1;P2;durP2;ratioP2
21731;SDS011;11028;51.156;17.130;2024-01-15T00:03:12;17.30;;;8.32;;
21731;SDS011;11028;51.156;17.130;2024-01-15T00:10:30;14.45;;;7.85;;
21731;SDS011;11028;51.156;17.130;2024-01-15T00:17:49;13.77;;;7.32;;
21731;SDS011;11028;51.156;17.130;2024-01-15T00:25:09;13.30;;;5.65;;
21731;SDS011;11028;51.156;17.130;2024-01-15T00:32:28;13.40;;;6.22;;
21731;SDS011;11028;51.156;17.130;2024-01-15T00:39:47;12.95;;;6.63;;
21731;SDS011;11028;51.156;17.130;2024-01-15T00:47:07;12.05;;;6.13;;
21731;SDS011;11028;51.156;17.130;2024-01-15T00:54:26;12.00;;;6.32;;
21731;SDS011;11028;51.156;17.130;2024-01-15T01:01:45;13.82;;;7.07;;
21731;SDS011;11028;51.156;17.130;2024-01-15T01:09:05;14.52;;;6.28;;
21731;SDS011;11028;51.156;17.130;2024-01-15T01:16:23;12.40;;;5.97;;
21731;SDS011;11028;51.156;17.130;2024-01-15T01:23:42;10.80;;;5.95;;
21731;SDS011;11028;51.156;17.130;2024-01-15T01:31:02;9.77;;;5.93;;
21731;SDS011;11028;51.156;17.130;2024-01-15T01:38:21;12.35;;;6.10;;
21731;SDS011;11028;51.156;17.130;2024-01-15T01:45:40;9.07;;;5.50;;
21731;SDS011;11028;51.156;17.130;2024-01-15T01:53:00;14.18;;;7.53;;
21731;SDS011;11028;51.156;17.130;2024-01-15T02:00:21;11.90;;;5.73;;
21731;SDS011;11028;51.156;17.130;2024-01-15T02:07:41;14.77;;;6.38;;
21731;SDS011;11028;51.156;17.130;2024-01-15T02:15:04;12.15;;;7.00;;
21731;SDS011;11028;51.156;17.130;2024-01-15T02:22:23;18.40;;;10.15;;
21731;SDS011;11028;51.156;17.130;2024-01-15T02:29:44;13.13;;;7.05;;
21731;SDS011;11028;51.156;17.130;2024-01-15T02:37:02;17.33;;;8.05;;
21731;SDS011;11028;51.156;17.130;2024-01-15T02:44:21;18.98;;;8.82;;
21731;SDS011;11028;51.156;17.130;2024-01-15T02:51:41;15.23;;;8.43;;
21731;SDS011;11028;51.156;17.130;2024-01-15T02:59:00;23.67;;;8.88;;
21731;SDS011;11028;51.156;17.130;2024-01-15T03:06:18;19.17;;;8.75;;
21731;SDS011;11028;51.156;17.130;2024-01-15T03:13:38;14.73;;;7.45;;
21731;SDS011;11028;51.156;17.130;2024-01-15T03:20:57;15.20;;;7.68;;
21731;SDS011;11028;51.156;17.130;2024-01-15T03:28:18;10.52;;;5.80;;
21731;SDS011;11028;51.156;17.130;2024-01-15T03:35:38;9.35;;;5.00;;
21731;SDS011;11028;51.156;17.130;2024-01-15T03:42:57;11.50;;;6.32;;
21731;SDS011;11028;51.156;17.130;2024-01-15T03:50:16;7.55;;;4.55;;
21731;SDS011;11028;51.156;17.130;2024-01-15T03:57:36;5.82;;;3.83;;
21731;SDS011;11028;51.156;17.130;2024-01-15T04:04:55;16.70;;;5.82;;
21731;SDS011;11028;51.156;17.130;2024-01-15T04:12:15;11.32;;;5.82;;
21731;SDS011;11028;51.156;17.130;2024-01-15T04:19:34;4.07;;;2.42;;
21731;SDS011;11028;51.156;17.130;2024-01-15T04:26:54;9.40;;;3.95;;
21731;SDS011;11028;51.156;17.130;2024-01-15T04:34:13;4.90;;;2.63;;
21731;SDS011;11028;51.156;17.130;2024-01-15T04:41:33;10.23;;;4.32;;
21731;SDS011;11028;51.156;17.130;2024-01-15T04:48:51;10.70;;;4.93;;
21731;SDS011;11028;51.156;17.130;2024-01-15T04:56:10;7.32;;;3.65;;
21731;SDS011;11028;51.156;17.130;2024-01-15T05:03:31;9.75;;;4.30;;
21731;SDS011;11028;51.156;17.130;2024-01-15T05:10:50;7.65;;;4.18;;
21731;SDS011;11028;51.156;17.130;2024-01-15T05:18:08;11.07;;;5.60;;
21731;SDS011;11028;51.156;17.130;2024-01-15T05:25:29;6.68;;;4.05;;
21731;SDS011;11028;51.156;17.130;2024-01-15T05:32:47;6.75;;;3.67;;
21731;SDS011;11028;51.156;17.130;2024-01-15T05:40:06;9.35;;;4.47;;
21731;SDS011;11028;51.156;17.130;2024-01-15T05:47:27;9.68;;;4.88;;
21731;SDS011;11028;51.156;17.130;2024-01-15T05:54:46;8.63;;;4.28;;
21731;SDS011;11028;51.156;17.130;2024-01-15T06:02:05;10.82;;;5.28;;
21731;SDS011;11028;51.156;17.130;2024-01-15T06:09:26;11.52;;;6.40;;
21731;SDS011;11028;51.156;17.130;2024-01-15T06:16:45;9.93;;;3.47;;
21731;SDS011;11028;51.156;17.130;2024-01-15T06:24:04;4.35;;;2.95;;
21731;SDS011;11028;51.156;17.130;2024-01-15T06:31:25;7.35;;;5.75;;
21731;SDS011;11028;51.156;17.130;2024-01-15T06:38:43;6.85;;;4.25;;
21731;SDS011;11028;51.156;17.130;2024-01-15T06:46:02;3.95;;;3.42;;
21731;SDS011;11028;51.156;17.130;2024-01-15T06:53:26;6.32;;;4.13;;
21731;SDS011;11028;51.156;17.130;2024-01-15T07:00:44;6.32;;;3.60;;
21731;SDS011;11028;51.156;17.130;2024-01-15T07:08:04;10.43;;;3.88;;
21731;SDS011;11028;51.156;17.130;2024-01-15T07:15:24;10.93;;;4.13;;
21731;SDS011;11028;51.156;17.130;2024-01-15T07:22:43;12.52;;;4.28;;
21731;SDS011;11028;51.156;17.130;2024-01-15T07:30:02;9.05;;;4.80;;
21731;SDS011;11028;51.156;17.130;2024-01-15T07:37:25;9.32;;;4.35;;
21731;SDS011;11028;51.156;17.130;2024-01-15T07:44:43;8.77;;;4.43;;
21731;SDS011;11028;51.156;17.130;2024-01-15T07:52:02;6.50;;;3.90;;
21731;SDS011;11028;51.156;17.130;2024-01-15T07:59:23;5.63;;;3.15;;
21731;SDS011;11028;51.156;17.130;2024-01-15T08:06:42;6.53;;;3.55;;
21731;SDS011;11028;51.156;17.130;2024-01-15T08:14:01;8.45;;;4.50;;
21731;SDS011;11028;51.156;17.130;2024-01-15T08:21:22;9.63;;;4.18;;
21731;SDS011;11028;51.156;17.130;2024-01-15T08:28:41;6.18;;;3.60;;
21731;SDS011;11028;51.156;17.130;2024-01-15T08:35:59;7.82;;;3.05;;
21731;SDS011;11028;51.156;17.130;2024-01-15T08:43:22;4.57;;;2.78;;
21731;SDS011;11028;51.156;17.130;2024-01-15T08:50:42;3.90;;;2.13;;
21731;SDS011;11028;51.156;17.130;2024-01-15T08:58:03;8.45;;;3.08;;
21731;SDS011;11028;51.156;17.130;2024-01-15T09:05:24;3.80;;;2.72;;
21731;SDS011;11028;51.156;17.130;2024-01-15T09:12:43;4.95;;;2.60;;
21731;SDS011;11028;51.156;17.130;2024-01-15T09:20:02;8.27;;;3.55;;
21731;SDS011;11028;51.156;17.130;2024-01-15T09:27:23;4.45;;;2.58;;
21731;SDS011;11028;51.156;17.130;2024-01-15T09:34:42;9.90;;;3.63;;
21731;SDS011;11028;51.156;17.130;2024-01-15T09:42:02;5.15;;;2.35;;
21731;SDS011;11028;51.156;17.130;2024-01-15T09:49:23;6.25;;;2.95;;
21731;SDS011;11028;51.156;17.130;2024-01-15T09:56:42;6.63;;;3.45;;
21731;SDS011;11028;51.156;17.130;2024-01-15T10:04:03;6.57;;;3.22;;
21731;SDS011;11028;51.156;17.130;2024-01-15T10:11:23;9.02;;;3.58;;
21731;SDS011;11028;51.156;17.130;2024-01-15T10:18:44;7.15;;;3.25;;
21731;SDS011;11028;51.156;17.130;2024-01-15T10:26:03;4.47;;;2.03;;
21731;SDS011;11028;51.156;17.130;2024-01-15T10:33:23;6.75;;;2.80;;
21731;SDS011;11028;51.156;17.130;2024-01-15T10:40:42;8.45;;;2.75;;
21731;SDS011;11028;51.156;17.130;2024-01-15T10:48:01;4.95;;;2.50;;
21731;SDS011;11028;51.156;17.130;2024-01-15T10:55:22;4.05;;;1.55;;
21731;SDS011;11028;51.156;17.130;2024-01-15T11:02:49;7.38;;;3.65;;
21731;SDS011;11028;51.156;17.130;2024-01-15T11:18:03;6.47;;;2.70;;
21731;SDS011;11028;51.156;17.130;2024-01-15T11:25:23;4.13;;;1.85;;
21731;SDS011;11028;51.156;17.130;2024-01-15T11:32:43;6.80;;;3.25;;
21731;SDS011;11028;51.156;17.130;2024-01-15T11:40:03;4.63;;;2.42;;
21731;SDS011;11028;51.156;17.130;2024-01-15T11:55:44;5.60;;;1.85;;
21731;SDS011;11028;51.156;17.130;2024-01-15T12:03:05;9.57;;;2.60;;
21731;SDS011;11028;51.156;17.130;2024-01-15T12:10:24;5.97;;;2.80;;
21731;SDS011;11028;51.156;17.130;2024-01-15T12:17:47;5.63;;;2.88;;
21731;SDS011;11028;51.156;17.130;2024-01-15T12:25:06;5.90;;;2.43;;
21731;SDS011;11028;51.156;17.130;2024-01-15T12:32:25;6.50;;;2.50;;
21731;SDS011;11028;51.156;17.130;2024-01-15T12:39:45;9.98;;;2.97;;
21731;SDS011;11028;51.156;17.130;2024-01-15T12:47:04;6.78;;;2.88;;
21731;SDS011;11028;51.156;17.130;2024-01-15T12:54:22;5.07;;;2.55;;
21731;SDS011;11028;51.156;17.130;2024-01-15T13:01:43;6.95;;;2.40;;
21731;SDS011;11028;51.156;17.130;2024-01-15T13:09:04;4.43;;;2.20;;
21731;SDS011;11028;51.156;17.130;2024-01-15T13:16:23;3.58;;;2.05;;
21731;SDS011;11028;51.156;17.130;2024-01-15T13:23:45;6.03;;;2.85;;
21731;SDS011;11028;51.156;17.130;2024-01-15T13:31:04;6.18;;;2.97;;
21731;SDS011;11028;51.156;17.130;2024-01-15T13:38:22;8.40;;;2.50;;
21731;SDS011;11028;51.156;17.130;2024-01-15T13:45:43;2.25;;;1.70;;
21731;SDS011;11028;51.156;17.130;2024-01-15T13:53:03;4.88;;;2.45;;
21731;SDS011;11028;51.156;17.130;2024-01-15T14:00:24;10.10;;;3.50;;
21731;SDS011;11028;51.156;17.130;2024-01-15T14:07:44;9.75;;;3.42;;
21731;SDS011;11028;51.156;17.130;2024-01-15T14:15:04;9.38;;;3.00;;
21731;SDS011;11028;51.156;17.130;2024-01-15T14:22:23;12.00;;;2.50;;
21731;SDS011;11028;51.156;17.130;2024-01-15T14:29:43;7.18;;;3.63;;
21731;SDS011;11028;51.156;17.130;2024-01-15T14:37:03;7.25;;;2.55;;
21731;SDS011;11028;51.156;17.130;2024-01-15T14:44:22;5.88;;;3.15;;
21731;SDS011;11028;51.156;17.130;2024-01-15T14:51:42;11.95;;;4.05;;
21731;SDS011;11028;51.156;17.130;2024-01-15T14:59:01;8.20;;;4.03;;
21731;SDS011;11028;51.156;17.130;2024-01-15T15:06:20;7.65;;;2.90;;
21731;SDS011;11028;51.156;17.130;2024-01-15T15:13:46;11.73;;;2.38;;
21731;SDS011;11028;51.156;17.130;2024-01-15T15:21:06;3.53;;;2.33;;
21731;SDS011;11028;51.156;17.130;2024-01-15T15:28:25;8.35;;;2.70;;
21731;SDS011;11028;51.156;17.130;2024-01-15T15:35:44;13.43;;;3.58;;
21731;SDS011;11028;51.156;17.130;2024-01-15T15:43:03;7.07;;;2.55;;
21731;SDS011;11028;51.156;17.130;2024-01-15T15:50:23;8.05;;;3.67;;
21731;SDS011;11028;51.156;17.130;2024-01-15T15:57:45;3.90;;;1.85;;
21731;SDS011;11028;51.156;17.130;2024-01-15T16:05:04;5.43;;;2.88;;
21731;SDS011;11028;51.156;17.130;2024-01-15T16:12:27;9.10;;;2.50;;
21731;SDS011;11028;51.156;17.130;2024-01-15T16:19:47;4.53;;;2.42;;
21731;SDS011;11028;51.156;17.130;2024-01-15T16:27:25;5.68;;;3.22;;
21731;SDS011;11028;51.156;17.130;2024-01-15T16:34:44;1.70;;;1.33;;
21731;SDS011;11028;51.156;17.130;2024-01-15T16:42:05;8.35;;;4.05;;
21731;SDS011;11028;51.156;17.130;2024-01-15T16:49:25;4.85;;;2.97;;
21731;SDS011;11028;51.156;17.130;2024-01-15T16:56:44;11.57;;;4.47;;
21731;SDS011;11028;51.156;17.130;2024-01-15T17:04:06;6.25;;;4.28;;
21731;SDS011;11028;51.156;17.130;2024-01-15T17:11:25;3.97;;;2.78;;
21731;SDS011;11028;51.156;17.130;2024-01-15T17:18:45;10.35;;;4.28;;
21731;SDS011;11028;51.156;17.130;2024-01-15T17:26:06;15.15;;;4.63;;
21731;SDS011;11028;51.156;17.130;2024-01-15T17:33:24;9.10;;;3.35;;
21731;SDS011;11028;51.156;17.130;2024-01-15T17:40:43;7.28;;;2.30;;
21731;SDS011;11028;51.156;17.130;2024-01-15T17:48:04;7.00;;;3.10;;
21731;SDS011;11028;51.156;17.130;2024-01-15T17:55:23;6.97;;;3.30;;
21731;SDS011;11028;51.156;17.130;2024-01-15T18:02:42;5.93;;;2.05;;
21731;SDS011;11028;51.156;17.130;2024-01-15T18:10:02;7.93;;;3.53;;
21731;SDS011;11028;51.156;17.130;2024-01-15T18:17:21;8.43;;;3.15;;
21731;SDS011;11028;51.156;17.130;2024-01-15T18:24:42;5.45;;;3.20;;
21731;SDS011;11028;51.156;17.130;2024-01-15T18:32:03;6.40;;;2.72;;
21731;SDS011;11028;51.156;17.130;2024-01-15T18:39:23;2.70;;;1.98;;
21731;SDS011;11028;51.156;17.130;2024-01-15T18:46:42;5.10;;;3.30;;
21731;SDS011;11028;51.156;17.130;2024-01-15T18:54:04;5.53;;;2.40;;
21731;SDS011;11028;51.156;17.130;2024-01-15T19:01:26;8.27;;;4.07;;
21731;SDS011;11028;51.156;17.130;2024-01-15T19:08:46;4.70;;;3.00;;
21731;SDS011;11028;51.156;17.130;2024-01-15T19:16:05;6.20;;;3.95;;
21731;SDS011;11028;51.156;17.130;2024-01-15T19:23:25;8.93;;;4.03;;
21731;SDS011;11028;51.156;17.130;2024-01-15T19:30:44;6.80;;;3.28;;
21731;SDS011;11028;51.156;17.130;2024-01-15T19:38:06;4.45;;;3.00;;
21731;SDS011;11028;51.156;17.130;2024-01-15T19:45:25;7.80;;;3.95;;
21731;SDS011;11028;51.156;17.130;2024-01-15T19:52:44;8.95;;;4.03;;
21731;SDS011;11028;51.156;17.130;2024-01-15T20:00:05;7.25;;;3.60;;
21731;SDS011;11028;51.156;17.130;2024-01-15T20:07:25;8.63;;;4.20;;
21731;SDS011;11028;51.156;17.130;2024-01-15T20:14:44;8.73;;;3.47;;
21731;SDS011;11028;51.156;17.130;2024-01-15T20:22:04;10.82;;;3.88;;
21731;SDS011;11028;51.156;17.130;2024-01-15T20:29:24;8.43;;;3.90;;
21731;SDS011;11028;51.156;17.130;2024-01-15T20:36:50;7.43;;;3.63;;
21731;SDS011;11028;51.156;17.130;2024-01-15T20:44:13;7.50;;;3.78;;
21731;SDS011;11028;51.156;17.130;2024-01-15T20:58:53;11.65;;;5.03;;
21731;SDS011;11028;51.156;17.130;2024-01-15T21:06:14;9.27;;;4.43;;
21731;SDS011;11028;51.156;17.130;2024-01-15T21:13:33;12.57;;;5.60;;
21731;SDS011;11028;51.156;17.130;2024-01-15T21:20:52;4.93;;;2.67;;
21731;SDS011;11028;51.156;17.130;2024-01-15T21:28:13;9.45;;;4.82;;
21731;SDS011;11028;51.156;17.130;2024-01-15T21:35:33;11.98;;;6.18;;
21731;SDS011;11028;51.156;17.130;2024-01-15T21:42:52;12.77;;;6.13;;
21731;SDS011;11028;51.156;17.130;2024-01-15T21:50:12;15.57;;;5.53;;
21731;SDS011;11028;51.156;17.130;2024-01-15T21:57:31;4.60;;;3.20;;
21731;SDS011;11028;51.156;17.130;2024-01-15T22:04:50;9.52;;;4.32;;
21731;SDS011;11028;51.156;17.130;2024-01-15T22:12:10;13.50;;;5.30;;
21731;SDS011;11028;51.156;17.130;2024-01-15T22:19:29;6.05;;;3.35;;
21731;SDS011;11028;51.156;17.130;2024-01-15T22:26:50;13.60;;;5.00;;
21731;SDS011;11028;51.156;17.130;2024-01-15T22:34:13;11.38;;;4.80;;
21731;SDS011;11028;51.156;17.130;2024-01-15T22:41:34;11.65;;;5.00;;
21731;SDS011;11028;51.156;17.130;2024-01-15T22:48:53;9.73;;;4.13;;
21731;SDS011;11028;51.156;17.130;2024-01-15T22:56:14;10.48;;;5.15;;
21731;SDS011;11028;51.156;17.130;2024-01-15T23:10:56;16.33;;;5.80;;
21731;SDS011;11028;51.156;17.130;2024-01-15T23:18:16;8.20;;;4.97;;
21731;SDS011;11028;51.156;17.130;2024-01-15T23:25:35;8.02;;;4.93;;
21731;SDS011;11028;51.156;17.130;2024-01-15T23:32:55;10.45;;;5.10;;
21731;SDS011;11028;51.156;17.130;2024-01-15T23:40:16;13.85;;;5.50;;
21731;SDS011;11028;51.156;17.130;2024-01-15T23:47:34;7.63;;;3.78;;
21731;SDS011;11028;51.156;17.130;2024-01-15T23:54:53;8.20;;;5.07;;
